sensor_id;sensor_type;location;lat;lon;timestamp;pressure;altitude;pressure_sealevel;temperature
37452;BMP280;23314;51.114;6.900;2023-10-19T00:01:07;99178.13;;;13.65
37452;BMP280;23314;51.114;6.900;2023-10-19T00:03:33;99186.16;;;13.65
37452;BMP280;23314;51.114;6.900;2023-10-19T00:05:59;99187.63;;;13.66
37452;BMP280;23314;51.114;6.900;2023-10-19T00:08:24;99181.84;;;13.67
37452;BMP280;23314;51.114;6.900;2023-10-19T00:10:52;99174.09;;;13.69
37452;BMP280;23314;51.114;6.900;2023-10-19T00:13:28;99183.59;;;13.70
37452;BMP280;23314;51.114;6.900;2023-10-19T00:15:55;99181.16;;;13.73
37452;BMP280;23314;51.114;6.900;2023-10-19T00:18:24;99182.94;;;13.76
37452;BMP280;23314;51.114;6.900;2023-10-19T00:20:51;99182.50;;;13.77
37452;BMP280;23314;51.114;6.900;2023-10-19T00:23:35;99174.72;;;13.79
37452;BMP280;23314;51.114;6.900;2023-10-19T00:26:02;99176.19;;;13.80
37452;BMP280;23314;51.114;6.900;2023-10-19T00:28:36;99170.66;;;13.84
37452;BMP280;23314;51.114;6.900;2023-10-19T00:31:03;99164.81;;;13.85
37452;BMP280;23314;51.114;6.900;2023-10-19T00:33:33;99161.69;;;13.87
37452;BMP280;23314;51.114;6.900;2023-10-19T00:36:01;99166.56;;;13.89
37452;BMP280;23314;51.114;6.900;2023-10-19T00:38:37;99166.81;;;13.91
37452;BMP280;23314;51.114;6.900;2023-10-19T00:41:05;99162.97;;;13.92
37452;BMP280;23314;51.114;6.900;2023-10-19T00:43:33;99154.91;;;13.92
37452;BMP280;23314;51.114;6.900;2023-10-19T00:46:06;99143.00;;;13.93
37452;BMP280;23314;51.114;6.900;2023-10-19T00:48:56;99149.56;;;13.92
37452;BMP280;23314;51.114;6.900;2023-10-19T00:51:34;99149.56;;;13.92
37452;BMP280;23314;51.114;6.900;2023-10-19T00:54:04;99154.47;;;13.93
37452;BMP280;23314;51.114;6.900;2023-10-19T00:56:34;99147.88;;;13.94
37452;BMP280;23314;51.114;6.900;2023-10-19T00:59:01;99153.06;;;13.98
37452;BMP280;23314;51.114;6.900;2023-10-19T01:01:38;99156.03;;;14.00
37452;BMP280;23314;51.114;6.900;2023-10-19T01:04:09;99152.16;;;14.01
37452;BMP280;23314;51.114;6.900;2023-10-19T01:06:39;99163.84;;;14.03
37452;BMP280;23314;51.114;6.900;2023-10-19T01:09:04;99165.63;;;14.07
37452;BMP280;23314;51.114;6.900;2023-10-19T01:11:30;99163.97;;;14.09
37452;BMP280;23314;51.114;6.900;2023-10-19T01:13:56;99162.28;;;14.12
37452;BMP280;23314;51.114;6.900;2023-10-19T01:16:21;99162.28;;;14.12
37452;BMP280;23314;51.114;6.900;2023-10-19T01:18:50;99163.78;;;14.13
37452;BMP280;23314;51.114;6.900;2023-10-19T01:21:21;99165.69;;;14.12
37452;BMP280;23314;51.114;6.900;2023-10-19T01:23:47;99174.50;;;14.13
37452;BMP280;23314;51.114;6.900;2023-10-19T01:26:13;99170.78;;;14.10
37452;BMP280;23314;51.114;6.900;2023-10-19T01:28:44;99173.00;;;14.12
37452;BMP280;23314;51.114;6.900;2023-10-19T01:33:49;99166.72;;;14.15
37452;BMP280;23314;51.114;6.900;2023-10-19T01:36:14;99170.41;;;14.17
37452;BMP280;23314;51.114;6.900;2023-10-19T01:38:41;99177.97;;;14.19
37452;BMP280;23314;51.114;6.900;2023-10-19T01:41:08;99172.59;;;14.19
37452;BMP280;23314;51.114;6.900;2023-10-19T01:43:44;99163.38;;;14.20
37452;BMP280;23314;51.114;6.900;2023-10-19T01:46:17;99154.31;;;14.17
37452;BMP280;23314;51.114;6.900;2023-10-19T01:48:57;99151.63;;;14.17
37452;BMP280;23314;51.114;6.900;2023-10-19T01:51:24;99151.38;;;14.15
37452;BMP280;23314;51.114;6.900;2023-10-19T01:53:54;99149.69;;;14.18
37452;BMP280;23314;51.114;6.900;2023-10-19T01:56:20;99144.41;;;14.24
37452;BMP280;23314;51.114;6.900;2023-10-19T01:58:47;99152.25;;;14.27
37452;BMP280;23314;51.114;6.900;2023-10-19T02:01:14;99146.44;;;14.29
37452;BMP280;23314;51.114;6.900;2023-10-19T02:03:49;99149.66;;;14.33
37452;BMP280;23314;51.114;6.900;2023-10-19T02:06:20;99146.53;;;14.34
37452;BMP280;23314;51.114;6.900;2023-10-19T02:08:50;99146.28;;;14.38
37452;BMP280;23314;51.114;6.900;2023-10-19T02:11:20;99148.53;;;14.40
37452;BMP280;23314;51.114;6.900;2023-10-19T02:13:47;99140.28;;;14.43
37452;BMP280;23314;51.114;6.900;2023-10-19T02:16:16;99148.84;;;14.47
37452;BMP280;23314;51.114;6.900;2023-10-19T02:18:44;99142.28;;;14.48
37452;BMP280;23314;51.114;6.900;2023-10-19T02:21:10;99139.41;;;14.52
37452;BMP280;23314;51.114;6.900;2023-10-19T02:23:39;99134.78;;;14.52
37452;BMP280;23314;51.114;6.900;2023-10-19T02:26:05;99136.50;;;14.56
37452;BMP280;23314;51.114;6.900;2023-10-19T02:28:31;99128.75;;;14.58
37452;BMP280;23314;51.114;6.900;2023-10-19T02:31:03;99131.41;;;14.58
37452;BMP280;23314;51.114;6.900;2023-10-19T02:33:45;99130.69;;;14.57
37452;BMP280;23314;51.114;6.900;2023-10-19T02:36:26;99116.81;;;14.59
37452;BMP280;23314;51.114;6.900;2023-10-19T02:38:56;99118.25;;;14.60
37452;BMP280;23314;51.114;6.900;2023-10-19T02:41:24;99119.28;;;14.62
37452;BMP280;23314;51.114;6.900;2023-10-19T02:43:52;99117.34;;;14.63
37452;BMP280;23314;51.114;6.900;2023-10-19T02:46:32;99112.25;;;14.65
37452;BMP280;23314;51.114;6.900;2023-10-19T02:49:02;99125.16;;;14.66
37452;BMP280;23314;51.114;6.900;2023-10-19T02:51:31;99112.78;;;14.69
37452;BMP280;23314;51.114;6.900;2023-10-19T02:53:57;99108.88;;;14.70
37452;BMP280;23314;51.114;6.900;2023-10-19T02:56:26;99113.75;;;14.72
37452;BMP280;23314;51.114;6.900;2023-10-19T02:58:52;99111.34;;;14.74
37452;BMP280;23314;51.114;6.900;2023-10-19T03:01:21;99115.78;;;14.77
37452;BMP280;23314;51.114;6.900;2023-10-19T03:03:54;99104.53;;;14.78
37452;BMP280;23314;51.114;6.900;2023-10-19T03:06:23;99107.50;;;14.80
37452;BMP280;23314;51.114;6.900;2023-10-19T03:08:49;99101.69;;;14.82
37452;BMP280;23314;51.114;6.900;2023-10-19T03:11:26;99098.25;;;14.81
37452;BMP280;23314;51.114;6.900;2023-10-19T03:13:55;99096.56;;;14.84
37452;BMP280;23314;51.114;6.900;2023-10-19T03:16:22;99083.63;;;14.82
37452;BMP280;23314;51.114;6.900;2023-10-19T03:18:50;99087.06;;;14.83
37452;BMP280;23314;51.114;6.900;2023-10-19T03:21:18;99086.31;;;14.82
37452;BMP280;23314;51.114;6.900;2023-10-19T03:23:44;99077.53;;;14.82
37452;BMP280;23314;51.114;6.900;2023-10-19T03:26:09;99081.69;;;14.83
37452;BMP280;23314;51.114;6.900;2023-10-19T03:28:53;99075.31;;;14.80
37452;BMP280;23314;51.114;6.900;2023-10-19T03:31:23;99077.97;;;14.80
37452;BMP280;23314;51.114;6.900;2023-10-19T03:33:51;99078.25;;;14.82
37452;BMP280;23314;51.114;6.900;2023-10-19T03:36:24;99081.19;;;14.84
37452;BMP280;23314;51.114;6.900;2023-10-19T03:38:50;99063.44;;;14.87
37452;BMP280;23314;51.114;6.900;2023-10-19T03:41:21;99067.09;;;14.90
37452;BMP280;23314;51.114;6.900;2023-10-19T03:43:51;99061.25;;;14.91
37452;BMP280;23314;51.114;6.900;2023-10-19T03:46:19;99064.97;;;14.94
37452;BMP280;23314;51.114;6.900;2023-10-19T03:48:49;99063.00;;;14.94
37452;BMP280;23314;51.114;6.900;2023-10-19T03:51:15;99067.91;;;14.96
37452;BMP280;23314;51.114;6.900;2023-10-19T03:53:41;99052.06;;;14.98
37452;BMP280;23314;51.114;6.900;2023-10-19T03:56:13;99055.75;;;15.00
37452;BMP280;23314;51.114;6.900;2023-10-19T03:58:40;99049.88;;;15.02
37452;BMP280;23314;51.114;6.900;2023-10-19T04:01:08;99055.97;;;15.02
37452;BMP280;23314;51.114;6.900;2023-10-19T04:03:34;99055.50;;;15.04
37452;BMP280;23314;51.114;6.900;2023-10-19T04:06:01;99050.41;;;15.06
37452;BMP280;23314;51.114;6.900;2023-10-19T04:08:29;99049.19;;;15.07
37452;BMP280;23314;51.114;6.900;2023-10-19T04:10:59;99047.25;;;15.08
37452;BMP280;23314;51.114;6.900;2023-10-19T04:13:37;99041.88;;;15.08
37452;BMP280;23314;51.114;6.900;2023-10-19T04:16:02;99047.97;;;15.08
37452;BMP280;23314;51.114;6.900;2023-10-19T04:18:28;99049.94;;;15.08
37452;BMP280;23314;51.114;6.900;2023-10-19T04:20:53;99059.72;;;15.11
37452;BMP280;23314;51.114;6.900;2023-10-19T04:23:19;99047.50;;;15.10
37452;BMP280;23314;51.114;6.900;2023-10-19T04:25:47;99046.72;;;15.03
37452;BMP280;23314;51.114;6.900;2023-10-19T04:28:13;99045.97;;;15.03
37452;BMP280;23314;51.114;6.900;2023-10-19T04:30:45;99035.97;;;15.03
37452;BMP280;23314;51.114;6.900;2023-10-19T04:33:11;99047.25;;;15.08
37452;BMP280;23314;51.114;6.900;2023-10-19T04:35:37;99040.94;;;15.11
37452;BMP280;23314;51.114;6.900;2023-10-19T04:38:04;99044.09;;;15.15
37452;BMP280;23314;51.114;6.900;2023-10-19T04:40:31;99045.88;;;15.18
37452;BMP280;23314;51.114;6.900;2023-10-19T04:42:57;99047.59;;;15.21
37452;BMP280;23314;51.114;6.900;2023-10-19T04:45:23;99045.66;;;15.22
37452;BMP280;23314;51.114;6.900;2023-10-19T04:47:51;99040.03;;;15.25
37452;BMP280;23314;51.114;6.900;2023-10-19T04:50:17;99030.06;;;15.26
37452;BMP280;23314;51.114;6.900;2023-10-19T04:52:43;99029.53;;;15.22
37452;BMP280;23314;51.114;6.900;2023-10-19T04:55:08;99037.31;;;15.19
37452;BMP280;23314;51.114;6.900;2023-10-19T04:57:33;99038.06;;;15.20
37452;BMP280;23314;51.114;6.900;2023-10-19T05:00:00;99040.28;;;15.22
37452;BMP280;23314;51.114;6.900;2023-10-19T05:02:25;99036.38;;;15.23
37452;BMP280;23314;51.114;6.900;2023-10-19T05:04:50;99050.09;;;15.25
37452;BMP280;23314;51.114;6.900;2023-10-19T05:07:16;99041.03;;;15.28
37452;BMP280;23314;51.114;6.900;2023-10-19T05:09:44;99036.94;;;15.32
37452;BMP280;23314;51.114;6.900;2023-10-19T05:12:10;99049.16;;;15.33
37452;BMP280;23314;51.114;6.900;2023-10-19T05:14:37;99048.91;;;15.37
37452;BMP280;23314;51.114;6.900;2023-10-19T05:17:03;99042.34;;;15.38
37452;BMP280;23314;51.114;6.900;2023-10-19T05:19:32;99030.91;;;15.43
37452;BMP280;23314;51.114;6.900;2023-10-19T05:22:04;99042.63;;;15.46
37452;BMP280;23314;51.114;6.900;2023-10-19T05:24:29;99042.19;;;15.47
37452;BMP280;23314;51.114;6.900;2023-10-19T05:26:55;99034.84;;;15.48
37452;BMP280;23314;51.114;6.900;2023-10-19T05:29:21;99038.78;;;15.52
37452;BMP280;23314;51.114;6.900;2023-10-19T05:31:47;99034.94;;;15.59
37452;BMP280;23314;51.114;6.900;2023-10-19T05:34:13;99026.63;;;15.63
37452;BMP280;23314;51.114;6.900;2023-10-19T05:36:38;99036.41;;;15.66
37452;BMP280;23314;51.114;6.900;2023-10-19T05:39:04;99034.72;;;15.68
37452;BMP280;23314;51.114;6.900;2023-10-19T05:41:33;99033.97;;;15.68
37452;BMP280;23314;51.114;6.900;2023-10-19T05:43:59;99033.97;;;15.68
37452;BMP280;23314;51.114;6.900;2023-10-19T05:46:24;99029.81;;;15.67
37452;BMP280;23314;51.114;6.900;2023-10-19T05:48:50;99032.50;;;15.67
37452;BMP280;23314;51.114;6.900;2023-10-19T05:51:16;99032.50;;;15.67
37452;BMP280;23314;51.114;6.900;2023-10-19T05:53:42;99034.94;;;15.65
37452;BMP280;23314;51.114;6.900;2023-10-19T05:56:09;99046.91;;;15.64
37452;BMP280;23314;51.114;6.900;2023-10-19T05:58:35;99047.38;;;15.62
37452;BMP280;23314;51.114;6.900;2023-10-19T06:01:01;99047.13;;;15.60
37452;BMP280;23314;51.114;6.900;2023-10-19T06:03:26;99040.75;;;15.58
37452;BMP280;23314;51.114;6.900;2023-10-19T06:05:51;99047.59;;;15.59
37452;BMP280;23314;51.114;6.900;2023-10-19T06:08:19;99058.34;;;15.59
37452;BMP280;23314;51.114;6.900;2023-10-19T06:10:50;99057.16;;;15.60
37452;BMP280;23314;51.114;6.900;2023-10-19T06:13:16;99052.50;;;15.60
37452;BMP280;23314;51.114;6.900;2023-10-19T06:15:41;99063.50;;;15.62
37452;BMP280;23314;51.114;6.900;2023-10-19T06:18:06;99064.97;;;15.63
37452;BMP280;23314;51.114;6.900;2023-10-19T06:20:32;99072.56;;;15.65
37452;BMP280;23314;51.114;6.900;2023-10-19T06:22:58;99070.84;;;15.67
37452;BMP280;23314;51.114;6.900;2023-10-19T06:25:31;99071.13;;;15.69
37452;BMP280;23314;51.114;6.900;2023-10-19T06:27:57;99071.88;;;15.70
37452;BMP280;23314;51.114;6.900;2023-10-19T06:30:23;99083.59;;;15.73
37452;BMP280;23314;51.114;6.900;2023-10-19T06:32:51;99075.03;;;15.74
37452;BMP280;23314;51.114;6.900;2023-10-19T06:35:17;99080.94;;;15.78
37452;BMP280;23314;51.114;6.900;2023-10-19T06:37:43;99077.53;;;15.83
37452;BMP280;23314;51.114;6.900;2023-10-19T06:40:09;99078.06;;;15.88
37452;BMP280;23314;51.114;6.900;2023-10-19T06:42:37;99080.53;;;15.91
37452;BMP280;23314;51.114;6.900;2023-10-19T06:45:03;99072.25;;;15.95
37452;BMP280;23314;51.114;6.900;2023-10-19T06:47:28;99074.69;;;15.98
37452;BMP280;23314;51.114;6.900;2023-10-19T06:49:55;99082.53;;;16.02
37452;BMP280;23314;51.114;6.900;2023-10-19T06:52:21;99088.66;;;16.02
37452;BMP280;23314;51.114;6.900;2023-10-19T06:54:46;99083.03;;;16.06
37452;BMP280;23314;51.114;6.900;2023-10-19T06:57:12;99089.63;;;16.11
37452;BMP280;23314;51.114;6.900;2023-10-19T06:59:40;99081.56;;;16.11
37452;BMP280;23314;51.114;6.900;2023-10-19T07:02:05;99083.81;;;16.12
37452;BMP280;23314;51.114;6.900;2023-10-19T07:04:33;99080.34;;;16.12
37452;BMP280;23314;51.114;6.900;2023-10-19T07:06:58;99088.97;;;16.16
37452;BMP280;23314;51.114;6.900;2023-10-19T07:09:23;99083.34;;;16.19
37452;BMP280;23314;51.114;6.900;2023-10-19T07:11:49;99079.66;;;16.23
37452;BMP280;23314;51.114;6.900;2023-10-19T07:14:19;99087.78;;;16.28
37452;BMP280;23314;51.114;6.900;2023-10-19T07:16:47;99097.59;;;16.31
37452;BMP280;23314;51.114;6.900;2023-10-19T07:19:13;99095.84;;;16.34
37452;BMP280;23314;51.114;6.900;2023-10-19T07:21:39;99095.63;;;16.37
37452;BMP280;23314;51.114;6.900;2023-10-19T07:24:08;99103.47;;;16.41
37452;BMP280;23314;51.114;6.900;2023-10-19T07:26:36;99095.16;;;16.45
37452;BMP280;23314;51.114;6.900;2023-10-19T07:29:09;99096.91;;;16.48
37452;BMP280;23314;51.114;6.900;2023-10-19T07:31:35;99093.69;;;16.49
37452;BMP280;23314;51.114;6.900;2023-10-19T07:34:01;99092.28;;;16.54
37452;BMP280;23314;51.114;6.900;2023-10-19T07:36:26;99092.75;;;16.58
37452;BMP280;23314;51.114;6.900;2023-10-19T07:38:53;99090.56;;;16.62
37452;BMP280;23314;51.114;6.900;2023-10-19T07:41:20;99091.81;;;16.67
37452;BMP280;23314;51.114;6.900;2023-10-19T07:43:45;99097.44;;;16.75
37452;BMP280;23314;51.114;6.900;2023-10-19T07:46:11;99095.72;;;16.83
37452;BMP280;23314;51.114;6.900;2023-10-19T07:48:37;99089.41;;;16.92
37452;BMP280;23314;51.114;6.900;2023-10-19T07:51:03;99098.22;;;17.03
37452;BMP280;23314;51.114;6.900;2023-10-19T07:53:28;99099.94;;;17.12
37452;BMP280;23314;51.114;6.900;2023-10-19T07:55:55;99094.78;;;17.20
37452;BMP280;23314;51.114;6.900;2023-10-19T07:58:22;99092.06;;;17.26
37452;BMP280;23314;51.114;6.900;2023-10-19T08:00:47;99095.25;;;17.35
37452;BMP280;23314;51.114;6.900;2023-10-19T08:03:13;99096.94;;;17.44
37452;BMP280;23314;51.114;6.900;2023-10-19T08:05:41;99082.50;;;17.47
37452;BMP280;23314;51.114;6.900;2023-10-19T08:08:06;99088.63;;;17.48
37452;BMP280;23314;51.114;6.900;2023-10-19T08:10:32;99083.25;;;17.48
37452;BMP280;23314;51.114;6.900;2023-10-19T08:12:59;99086.91;;;17.45
37452;BMP280;23314;51.114;6.900;2023-10-19T08:15:25;99088.41;;;17.40
37452;BMP280;23314;51.114;6.900;2023-10-19T08:17:51;99084.22;;;17.39
37452;BMP280;23314;51.114;6.900;2023-10-19T08:20:18;99065.84;;;17.37
37452;BMP280;23314;51.114;6.900;2023-10-19T08:22:57;99076.88;;;17.34
37452;BMP280;23314;51.114;6.900;2023-10-19T08:25:23;99083.97;;;17.31
37452;BMP280;23314;51.114;6.900;2023-10-19T08:27:49;99075.44;;;17.27
37452;BMP280;23314;51.114;6.900;2023-10-19T08:30:20;99063.66;;;17.25
37452;BMP280;23314;51.114;6.900;2023-10-19T08:32:46;99076.19;;;17.22
37452;BMP280;23314;51.114;6.900;2023-10-19T08:35:15;99068.81;;;17.23
37452;BMP280;23314;51.114;6.900;2023-10-19T08:37:43;99073.47;;;17.28
37452;BMP280;23314;51.114;6.900;2023-10-19T08:40:12;99059.97;;;17.39
37452;BMP280;23314;51.114;6.900;2023-10-19T08:42:48;99065.81;;;17.54
37452;BMP280;23314;51.114;6.900;2023-10-19T08:45:14;99067.72;;;17.71
37452;BMP280;23314;51.114;6.900;2023-10-19T08:47:58;99068.91;;;17.87
37452;BMP280;23314;51.114;6.900;2023-10-19T08:50:30;99071.31;;;18.02
37452;BMP280;23314;51.114;6.900;2023-10-19T08:53:00;99070.50;;;18.18
37452;BMP280;23314;51.114;6.900;2023-10-19T08:55:26;99066.22;;;18.34
37452;BMP280;23314;51.114;6.900;2023-10-19T08:57:52;99077.16;;;18.53
37452;BMP280;23314;51.114;6.900;2023-10-19T09:00:18;99077.50;;;18.74
37452;BMP280;23314;51.114;6.900;2023-10-19T09:02:47;99064.78;;;19.00
37452;BMP280;23314;51.114;6.900;2023-10-19T09:05:13;99060.66;;;19.23
37452;BMP280;23314;51.114;6.900;2023-10-19T09:08:03;99069.03;;;19.45
37452;BMP280;23314;51.114;6.900;2023-10-19T09:10:32;99051.78;;;19.67
37452;BMP280;23314;51.114;6.900;2023-10-19T09:13:05;99058.97;;;19.83
37452;BMP280;23314;51.114;6.900;2023-10-19T09:15:35;99049.50;;;19.95
37452;BMP280;23314;51.114;6.900;2023-10-19T09:18:13;99045.69;;;20.04
37452;BMP280;23314;51.114;6.900;2023-10-19T09:20:43;99030.97;;;20.00
37452;BMP280;23314;51.114;6.900;2023-10-19T09:23:22;99030.84;;;19.92
37452;BMP280;23314;51.114;6.900;2023-10-19T09:25:51;99033.69;;;20.00
37452;BMP280;23314;51.114;6.900;2023-10-19T09:28:20;99038.66;;;19.95
37452;BMP280;23314;51.114;6.900;2023-10-19T09:30:48;99045.91;;;19.87
37452;BMP280;23314;51.114;6.900;2023-10-19T09:33:14;99030.97;;;19.81
37452;BMP280;23314;51.114;6.900;2023-10-19T09:35:44;99026.44;;;19.70
37452;BMP280;23314;51.114;6.900;2023-10-19T09:38:12;99029.78;;;19.57
37452;BMP280;23314;51.114;6.900;2023-10-19T09:40:38;99021.53;;;19.49
37452;BMP280;23314;51.114;6.900;2023-10-19T09:43:05;99024.38;;;19.57
37452;BMP280;23314;51.114;6.900;2023-10-19T09:45:36;99018.19;;;19.62
37452;BMP280;23314;51.114;6.900;2023-10-19T09:48:05;99020.31;;;19.69
37452;BMP280;23314;51.114;6.900;2023-10-19T09:50:32;99016.66;;;19.86
37452;BMP280;23314;51.114;6.900;2023-10-19T09:52:58;99006.41;;;19.98
37452;BMP280;23314;51.114;6.900;2023-10-19T09:55:29;98999.78;;;20.12
37452;BMP280;23314;51.114;6.900;2023-10-19T09:58:17;99005.91;;;20.32
37452;BMP280;23314;51.114;6.900;2023-10-19T10:00:45;99008.44;;;20.43
37452;BMP280;23314;51.114;6.900;2023-10-19T10:03:48;99003.69;;;20.49
37452;BMP280;23314;51.114;6.900;2023-10-19T10:06:15;99006.38;;;20.49
37452;BMP280;23314;51.114;6.900;2023-10-19T10:08:44;99002.22;;;20.48
37452;BMP280;23314;51.114;6.900;2023-10-19T10:11:16;98999.78;;;20.44
37452;BMP280;23314;51.114;6.900;2023-10-19T10:13:43;98998.31;;;20.43
37452;BMP280;23314;51.114;6.900;2023-10-19T10:16:13;98995.09;;;20.45
37452;BMP280;23314;51.114;6.900;2023-10-19T10:18:40;99003.13;;;20.51
37452;BMP280;23314;51.114;6.900;2023-10-19T10:21:14;98999.22;;;20.65
37452;BMP280;23314;51.114;6.900;2023-10-19T10:26:13;98986.53;;;21.13
37452;BMP280;23314;51.114;6.900;2023-10-19T10:28:40;98998.66;;;21.47
37452;BMP280;23314;51.114;6.900;2023-10-19T10:33:49;99004.66;;;21.66
37452;BMP280;23314;51.114;6.900;2023-10-19T10:36:18;99010.28;;;21.68
37452;BMP280;23314;51.114;6.900;2023-10-19T10:38:45;99008.94;;;21.96
37452;BMP280;23314;51.114;6.900;2023-10-19T10:41:11;99001.72;;;21.99
37452;BMP280;23314;51.114;6.900;2023-10-19T10:43:56;98997.28;;;22.09
37452;BMP280;23314;51.114;6.900;2023-10-19T10:46:26;98998.69;;;22.24
37452;BMP280;23314;51.114;6.900;2023-10-19T10:48:52;99000.03;;;22.38
37452;BMP280;23314;51.114;6.900;2023-10-19T10:51:22;99003.91;;;22.43
37452;BMP280;23314;51.114;6.900;2023-10-19T10:53:49;99005.81;;;22.55
37452;BMP280;23314;51.114;6.900;2023-10-19T10:56:16;99002.16;;;22.61
37452;BMP280;23314;51.114;6.900;2023-10-19T10:58:42;98988.06;;;22.62
37452;BMP280;23314;51.114;6.900;2023-10-19T11:01:07;98978.66;;;22.63
37452;BMP280;23314;51.114;6.900;2023-10-19T11:03:33;98979.75;;;22.60
37452;BMP280;23314;51.114;6.900;2023-10-19T11:06:07;98978.34;;;22.74
37452;BMP280;23314;51.114;6.900;2023-10-19T11:08:34;98972.94;;;22.82
37452;BMP280;23314;51.114;6.900;2023-10-19T11:11:04;98969.94;;;22.94
37452;BMP280;23314;51.114;6.900;2023-10-19T11:13:30;98963.41;;;22.97
37452;BMP280;23314;51.114;6.900;2023-10-19T11:15:58;98964.34;;;22.99
37452;BMP280;23314;51.114;6.900;2023-10-19T11:18:32;98953.78;;;22.88
37452;BMP280;23314;51.114;6.900;2023-10-19T11:20:58;98956.97;;;22.71
37452;BMP280;23314;51.114;6.900;2023-10-19T11:26:01;98942.59;;;22.63
37452;BMP280;23314;51.114;6.900;2023-10-19T11:28:28;98940.63;;;22.63
37452;BMP280;23314;51.114;6.900;2023-10-19T11:30:53;98946.28;;;22.73
37452;BMP280;23314;51.114;6.900;2023-10-19T11:33:20;98940.88;;;22.81
37452;BMP280;23314;51.114;6.900;2023-10-19T11:35:49;98940.47;;;22.77
37452;BMP280;23314;51.114;6.900;2023-10-19T11:38:15;98937.44;;;22.80
37452;BMP280;23314;51.114;6.900;2023-10-19T11:40:41;98937.44;;;22.80
37452;BMP280;23314;51.114;6.900;2023-10-19T11:43:06;98929.09;;;22.78
37452;BMP280;23314;51.114;6.900;2023-10-19T11:45:32;98921.47;;;22.77
37452;BMP280;23314;51.114;6.900;2023-10-19T11:47:57;98929.03;;;22.70
37452;BMP280;23314;51.114;6.900;2023-10-19T11:50:22;98914.56;;;22.68
37452;BMP280;23314;51.114;6.900;2023-10-19T11:52:49;98910.56;;;22.69
37452;BMP280;23314;51.114;6.900;2023-10-19T11:55:15;98901.34;;;22.72
37452;BMP280;23314;51.114;6.900;2023-10-19T11:57:42;98905.13;;;22.69
37452;BMP280;23314;51.114;6.900;2023-10-19T12:00:10;98903.34;;;22.71
37452;BMP280;23314;51.114;6.900;2023-10-19T12:02:39;98902.97;;;22.67
37452;BMP280;23314;51.114;6.900;2023-10-19T12:05:07;98920.16;;;22.62
37452;BMP280;23314;51.114;6.900;2023-10-19T12:07:36;98921.25;;;22.67
37452;BMP280;23314;51.114;6.900;2023-10-19T12:10:03;98928.69;;;22.66
37452;BMP280;23314;51.114;6.900;2023-10-19T12:12:29;98935.91;;;22.64
37452;BMP280;23314;51.114;6.900;2023-10-19T12:14:54;98920.66;;;22.61
37452;BMP280;23314;51.114;6.900;2023-10-19T12:17:20;98910.69;;;22.55
37452;BMP280;23314;51.114;6.900;2023-10-19T12:19:47;98917.00;;;22.50
37452;BMP280;23314;51.114;6.900;2023-10-19T12:22:12;98914.09;;;22.48
37452;BMP280;23314;51.114;6.900;2023-10-19T12:24:38;98912.25;;;22.43
37452;BMP280;23314;51.114;6.900;2023-10-19T12:27:04;98912.94;;;22.36
37452;BMP280;23314;51.114;6.900;2023-10-19T12:29:29;98912.69;;;22.26
37452;BMP280;23314;51.114;6.900;2023-10-19T12:31:57;98911.72;;;22.16
37452;BMP280;23314;51.114;6.900;2023-10-19T12:34:22;98916.72;;;22.04
37452;BMP280;23314;51.114;6.900;2023-10-19T12:36:48;98911.53;;;21.93
37452;BMP280;23314;51.114;6.900;2023-10-19T12:39:15;98914.34;;;21.79
37452;BMP280;23314;51.114;6.900;2023-10-19T12:41:59;98922.94;;;21.70
37452;BMP280;23314;51.114;6.900;2023-10-19T12:44:26;98922.88;;;21.62
37452;BMP280;23314;51.114;6.900;2023-10-19T12:46:53;98911.38;;;21.56
37452;BMP280;23314;51.114;6.900;2023-10-19T12:49:19;98918.56;;;21.46
37452;BMP280;23314;51.114;6.900;2023-10-19T12:51:51;98915.03;;;21.38
37452;BMP280;23314;51.114;6.900;2023-10-19T12:54:17;98917.31;;;21.33
37452;BMP280;23314;51.114;6.900;2023-10-19T12:56:43;98912.66;;;21.34
37452;BMP280;23314;51.114;6.900;2023-10-19T12:59:08;98908.25;;;21.31
37452;BMP280;23314;51.114;6.900;2023-10-19T13:01:34;98907.84;;;21.27
37452;BMP280;23314;51.114;6.900;2023-10-19T13:04:00;98918.09;;;21.21
37452;BMP280;23314;51.114;6.900;2023-10-19T13:06:31;98917.88;;;21.19
37452;BMP280;23314;51.114;6.900;2023-10-19T13:08:58;98932.47;;;21.15
37452;BMP280;23314;51.114;6.900;2023-10-19T13:11:24;98936.75;;;21.11
37452;BMP280;23314;51.114;6.900;2023-10-19T13:13:50;98937.09;;;21.07
37452;BMP280;23314;51.114;6.900;2023-10-19T13:16:15;98933.06;;;21.01
37452;BMP280;23314;51.114;6.900;2023-10-19T13:18:41;98930.84;;;20.99
37452;BMP280;23314;51.114;6.900;2023-10-19T13:21:07;98928.03;;;21.05
37452;BMP280;23314;51.114;6.900;2023-10-19T13:23:34;98925.59;;;21.14
37452;BMP280;23314;51.114;6.900;2023-10-19T13:26:01;98920.06;;;21.20
37452;BMP280;23314;51.114;6.900;2023-10-19T13:28:34;98919.56;;;21.22
37452;BMP280;23314;51.114;6.900;2023-10-19T13:31:03;98913.91;;;21.20
37452;BMP280;23314;51.114;6.900;2023-10-19T13:33:29;98921.47;;;21.13
37452;BMP280;23314;51.114;6.900;2023-10-19T13:35:54;98915.41;;;21.07
37452;BMP280;23314;51.114;6.900;2023-10-19T13:38:19;98911.16;;;20.98
37452;BMP280;23314;51.114;6.900;2023-10-19T13:40:45;98904.56;;;20.94
37452;BMP280;23314;51.114;6.900;2023-10-19T13:43:12;98904.38;;;20.92
37452;BMP280;23314;51.114;6.900;2023-10-19T13:45:42;98899.47;;;20.90
37452;BMP280;23314;51.114;6.900;2023-10-19T13:48:12;98894.06;;;20.90
37452;BMP280;23314;51.114;6.900;2023-10-19T13:50:46;98895.09;;;20.87
37452;BMP280;23314;51.114;6.900;2023-10-19T13:53:14;98890.94;;;20.86
37452;BMP280;23314;51.114;6.900;2023-10-19T13:55:41;98892.41;;;20.87
37452;BMP280;23314;51.114;6.900;2023-10-19T13:58:06;98877.16;;;20.84
37452;BMP280;23314;51.114;6.900;2023-10-19T14:00:32;98882.50;;;20.76
37452;BMP280;23314;51.114;6.900;2023-10-19T14:03:06;98872.63;;;20.66
37452;BMP280;23314;51.114;6.900;2023-10-19T14:05:42;98873.44;;;20.60
37452;BMP280;23314;51.114;6.900;2023-10-19T14:08:09;98854.41;;;20.53
37452;BMP280;23314;51.114;6.900;2023-10-19T14:10:35;98843.44;;;20.45
37452;BMP280;23314;51.114;6.900;2023-10-19T14:13:01;98844.06;;;20.38
37452;BMP280;23314;51.114;6.900;2023-10-19T14:15:27;98844.50;;;20.28
37452;BMP280;23314;51.114;6.900;2023-10-19T14:17:56;98836.91;;;20.27
37452;BMP280;23314;51.114;6.900;2023-10-19T14:20:23;98845.53;;;20.25
37452;BMP280;23314;51.114;6.900;2023-10-19T14:22:49;98832.00;;;20.25
37452;BMP280;23314;51.114;6.900;2023-10-19T14:25:15;98826.28;;;20.29